createdAt,value
2018-08-09T00:00:35.484Z,15.40
2018-08-09T00:03:06.438Z,12.17
2018-08-09T00:05:37.012Z,12.40
2018-08-09T00:08:07.637Z,12.60
2018-08-09T00:10:38.253Z,12.40
2018-08-09T00:13:09.068Z,12.00
2018-08-09T00:15:39.572Z,12.20
2018-08-09T00:18:10.293Z,10.93
2018-08-09T00:20:40.856Z,13.77
2018-08-09T00:23:11.479Z,12.70
2018-08-09T00:25:42.441Z,13.97
2018-08-09T00:28:12.995Z,14.80
2018-08-09T00:30:43.509Z,13.37
2018-08-09T00:33:14.298Z,13.53
2018-08-09T00:35:44.988Z,14.53
2018-08-09T00:38:15.581Z,13.77
2018-08-09T00:40:46.060Z,14.97
2018-08-09T00:43:16.474Z,14.93
2018-08-09T00:45:47.481Z,14.63
2018-08-09T00:48:18.778Z,15.37
2018-08-09T00:50:49.469Z,15.57
2018-08-09T00:53:20.958Z,14.47
2018-08-09T00:55:51.635Z,13.30
2018-08-09T00:58:22.110Z,13.90
2018-08-09T01:00:52.989Z,14.13
2018-08-09T01:03:23.669Z,13.67
2018-08-09T01:05:54.331Z,14.00
2018-08-09T01:08:24.948Z,14.70
2018-08-09T01:10:55.344Z,14.17
2018-08-09T01:13:25.727Z,14.53
2018-08-09T01:15:56.058Z,12.30
2018-08-09T01:18:26.482Z,11.20
2018-08-09T01:20:57.159Z,11.70
2018-08-09T01:23:27.819Z,12.43
2018-08-09T01:25:58.535Z,15.10
2018-08-09T01:28:28.996Z,14.20
2018-08-09T01:30:59.540Z,16.37
2018-08-09T01:33:30.032Z,13.53
2018-08-09T01:36:00.652Z,15.37
2018-08-09T01:38:31.411Z,13.90
2018-08-09T01:41:02.211Z,14.30
2018-08-09T01:43:49.681Z,20.23
2018-08-09T01:46:20.298Z,14.60
2018-08-09T01:48:50.869Z,17.57
2018-08-09T01:51:22.135Z,14.40
2018-08-09T01:53:53.717Z,17.33
2018-08-09T01:56:24.337Z,14.10
2018-08-09T01:58:55.573Z,14.30
2018-08-09T02:01:26.247Z,13.60
2018-08-09T02:03:56.782Z,13.33
2018-08-09T02:06:27.379Z,14.23
2018-08-09T02:09:02.018Z,13.23
2018-08-09T02:11:32.434Z,13.67
2018-08-09T02:14:03.504Z,14.40
2018-08-09T02:16:34.009Z,14.53
2018-08-09T02:19:04.685Z,13.40
2018-08-09T02:21:35.155Z,21.70
2018-08-09T02:24:05.660Z,15.33
2018-08-09T02:26:36.383Z,14.90
2018-08-09T02:29:08.501Z,14.20
2018-08-09T02:31:39.047Z,14.47
2018-08-09T02:34:10.022Z,14.80
2018-08-09T02:36:40.621Z,12.33
2018-08-09T02:39:11.921Z,13.63
2018-08-09T02:41:42.417Z,14.23
2018-08-09T02:44:12.982Z,13.90
2018-08-09T02:46:43.881Z,14.40
2018-08-09T02:49:14.537Z,13.40
2018-08-09T02:51:45.152Z,17.63
2018-08-09T02:54:15.913Z,16.10
2018-08-09T02:56:46.404Z,18.87
2018-08-09T02:59:17.074Z,14.43
2018-08-09T03:01:47.499Z,14.37
2018-08-09T03:04:18.022Z,14.87
2018-08-09T03:06:48.468Z,15.10
2018-08-09T03:09:19.177Z,14.13
2018-08-09T03:11:49.816Z,12.20
2018-08-09T03:14:20.393Z,12.43
2018-08-09T03:16:50.871Z,12.53
2018-08-09T03:19:21.251Z,12.57
2018-08-09T03:21:51.799Z,13.43
2018-08-09T03:24:22.290Z,14.77
2018-08-09T03:26:53.835Z,13.43
2018-08-09T03:29:24.513Z,14.93
2018-08-09T03:31:55.036Z,15.33
2018-08-09T03:34:25.565Z,16.63
2018-08-09T03:36:56.493Z,15.43
2018-08-09T03:39:26.954Z,15.80
2018-08-09T03:41:57.857Z,12.50
2018-08-09T03:44:28.446Z,14.90
2018-08-09T03:46:58.870Z,36.37
2018-08-09T03:49:29.381Z,32.60
2018-08-09T03:51:59.879Z,14.90
2018-08-09T03:54:30.380Z,20.40
2018-08-09T03:57:00.861Z,36.17
2018-08-09T03:59:31.372Z,21.07
2018-08-09T04:02:01.823Z,18.90
2018-08-09T04:04:32.548Z,13.97
2018-08-09T04:07:02.966Z,15.23
2018-08-09T04:09:33.724Z,16.07
2018-08-09T04:12:04.203Z,15.77
2018-08-09T04:14:35.109Z,14.33
2018-08-09T04:17:23.118Z,17.80
2018-08-09T04:19:54.414Z,17.03
2018-08-09T04:22:25.435Z,15.37
2018-08-09T04:24:55.959Z,17.27
2018-08-09T04:27:26.560Z,15.90
2018-08-09T04:29:57.165Z,15.03
2018-08-09T04:32:27.712Z,15.30
2018-08-09T04:34:58.160Z,15.40
2018-08-09T04:37:28.795Z,15.30
2018-08-09T04:39:59.233Z,15.13
2018-08-09T04:42:29.994Z,13.93
2018-08-09T04:45:00.832Z,14.97
2018-08-09T04:47:31.722Z,14.73
2018-08-09T04:50:02.268Z,17.07
2018-08-09T04:52:32.780Z,14.37
2018-08-09T04:55:03.786Z,15.60
2018-08-09T04:57:34.318Z,14.87
2018-08-09T05:00:05.593Z,14.43
2018-08-09T05:02:36.248Z,14.83
2018-08-09T05:05:07.015Z,13.63
2018-08-09T05:07:37.718Z,13.53
2018-08-09T05:10:10.395Z,16.73
2018-08-09T05:12:42.494Z,15.30
2018-08-09T05:15:13.765Z,21.27
2018-08-09T05:17:44.394Z,13.17
2018-08-09T05:20:14.955Z,18.13
2018-08-09T05:22:45.524Z,12.93
2018-08-09T05:25:16.155Z,13.87
2018-08-09T05:27:46.642Z,13.07
2018-08-09T05:30:18.144Z,13.47
2018-08-09T05:32:48.934Z,15.40
2018-08-09T05:35:19.363Z,13.17
2018-08-09T05:37:50.080Z,12.93
2018-08-09T05:40:21.213Z,13.57
2018-08-09T05:42:53.359Z,13.00
2018-08-09T05:45:24.631Z,15.40
2018-08-09T05:47:55.225Z,15.43
2018-08-09T05:50:25.719Z,13.17
2018-08-09T05:52:56.681Z,12.57
2018-08-09T05:55:27.279Z,12.77
2018-08-09T05:58:01.003Z,11.70
2018-08-09T06:00:32.165Z,15.33
2018-08-09T06:03:03.008Z,11.57
2018-08-09T06:05:33.818Z,11.83
2018-08-09T06:08:04.678Z,11.77
2018-08-09T06:10:36.995Z,10.43
2018-08-09T06:13:08.260Z,12.43
2018-08-09T06:15:40.558Z,12.00
2018-08-09T06:18:12.185Z,11.83
2018-08-09T06:20:42.866Z,12.23
2018-08-09T06:23:13.594Z,11.67
2018-08-09T06:25:44.452Z,10.77
2018-08-09T06:28:15.491Z,12.43
2018-08-09T06:30:46.443Z,11.40
2018-08-09T06:33:17.757Z,11.70
2018-08-09T06:35:50.054Z,11.37
2018-08-09T06:38:21.407Z,12.13
2018-08-09T06:40:52.234Z,11.57
2018-08-09T06:43:23.838Z,13.37
2018-08-09T06:45:54.921Z,12.07
2018-08-09T06:48:27.101Z,10.50
2018-08-09T06:50:58.334Z,13.97
2018-08-09T06:53:31.119Z,25.17
2018-08-09T06:56:03.421Z,11.87
2018-08-09T06:58:34.292Z,12.67
2018-08-09T07:01:05.079Z,12.40
2018-08-09T07:03:35.794Z,11.80
2018-08-09T07:06:06.659Z,11.10
2018-08-09T07:08:37.995Z,15.60
2018-08-09T07:11:13.562Z,12.50
2018-08-09T07:13:45.534Z,10.97
2018-08-09T07:16:17.797Z,11.20
2018-08-09T07:18:48.875Z,11.00
2018-08-09T07:21:19.645Z,11.33
2018-08-09T07:23:51.506Z,15.60
2018-08-09T07:26:23.847Z,9.83
2018-08-09T07:28:54.539Z,8.63
2018-08-09T07:31:25.867Z,9.87
2018-08-09T07:33:56.707Z,10.60
2018-08-09T07:36:27.373Z,9.30
2018-08-09T07:38:57.938Z,8.97
2018-08-09T07:41:29.394Z,9.23
2018-08-09T07:44:01.016Z,9.00
2018-08-09T07:46:32.657Z,8.07
2018-08-09T07:49:03.650Z,8.07
2018-08-09T07:51:35.663Z,7.53
2018-08-09T07:54:06.938Z,7.97
2018-08-09T07:56:38.228Z,7.50
2018-08-09T07:59:09.129Z,7.37
2018-08-09T08:01:41.321Z,7.83
2018-08-09T08:04:12.238Z,7.07
2018-08-09T08:06:43.986Z,14.07
2018-08-09T08:09:15.071Z,7.50
2018-08-09T08:11:52.872Z,7.13
2018-08-09T08:14:25.187Z,7.57
2018-08-09T08:16:56.362Z,7.77
2018-08-09T08:19:28.196Z,7.20
2018-08-09T08:21:58.738Z,7.13
2018-08-09T08:24:37.745Z,7.87
2018-08-09T08:27:09.818Z,8.30
2018-08-09T08:29:41.387Z,7.43
2018-08-09T08:32:13.724Z,7.67
2018-08-09T08:34:44.656Z,7.40
2018-08-09T08:37:15.835Z,8.70
2018-08-09T08:39:46.581Z,7.77
2018-08-09T08:42:17.164Z,7.60
2018-08-09T08:44:48.217Z,7.93
2018-08-09T08:47:20.554Z,7.40
2018-08-09T08:49:51.582Z,7.53
2018-08-09T08:52:22.700Z,7.87
2018-08-09T08:54:53.301Z,7.63
2018-08-09T08:57:24.272Z,8.20
2018-08-09T08:59:55.468Z,7.77
2018-08-09T09:02:26.249Z,10.78
2018-08-09T09:04:58.458Z,7.92
2018-08-09T09:07:29.572Z,8.95
2018-08-09T09:10:01.411Z,7.50
2018-08-09T09:12:33.009Z,8.30
2018-08-09T09:15:04.655Z,7.55
2018-08-09T09:17:35.337Z,7.75
2018-08-09T09:20:10.281Z,8.33
2018-08-09T09:22:41.712Z,7.72
2018-08-09T09:25:13.779Z,8.33
2018-08-09T09:27:44.558Z,7.78
2018-08-09T09:30:16.714Z,7.75
2018-08-09T09:32:47.735Z,7.90
2018-08-09T09:35:18.643Z,8.20
2018-08-09T09:37:50.989Z,8.25
2018-08-09T09:40:21.809Z,8.18
2018-08-09T09:42:52.409Z,8.55
2018-08-09T09:45:23.118Z,8.35
2018-08-09T09:47:54.123Z,8.38
2018-08-09T09:50:25.044Z,7.90
2018-08-09T09:52:55.916Z,7.85
2018-08-09T09:55:27.096Z,8.08
2018-08-09T09:57:58.271Z,8.15
2018-08-09T10:00:30.043Z,8.38
2018-08-09T10:03:01.490Z,9.53
2018-08-09T10:05:32.661Z,8.40
2018-08-09T10:08:03.185Z,8.65
2018-08-09T10:10:34.030Z,8.48
2018-08-09T10:13:04.814Z,9.20
2018-08-09T10:15:36.251Z,8.98
2018-08-09T10:18:07.380Z,8.45
2018-08-09T10:20:37.958Z,8.38
2018-08-09T10:23:08.726Z,8.48
2018-08-09T10:25:39.391Z,8.18
2018-08-09T10:28:10.143Z,8.53
2018-08-09T10:30:41.445Z,8.53
2018-08-09T10:33:12.968Z,8.28
2018-08-09T10:35:44.655Z,10.85
2018-08-09T10:38:15.430Z,8.13
2018-08-09T10:40:46.497Z,8.23
2018-08-09T10:43:17.453Z,8.70
2018-08-09T10:45:48.477Z,8.33
2018-08-09T10:48:19.665Z,8.38
2018-08-09T10:50:50.536Z,7.65
2018-08-09T10:53:22.007Z,8.43
2018-08-09T10:55:52.637Z,7.80
2018-08-09T10:58:23.346Z,9.15
2018-08-09T11:00:53.925Z,9.28
2018-08-09T11:03:24.516Z,7.97
2018-08-09T11:05:54.990Z,8.68
2018-08-09T11:08:25.696Z,8.13
2018-08-09T11:10:57.273Z,8.15
2018-08-09T11:13:28.915Z,7.90
2018-08-09T11:15:59.562Z,7.97
2018-08-09T11:18:30.385Z,7.95
2018-08-09T11:21:02.118Z,8.35
2018-08-09T11:23:33.809Z,8.13
2018-08-09T11:26:04.367Z,8.05
2018-08-09T11:28:35.352Z,7.35
2018-08-09T11:31:08.271Z,7.65
2018-08-09T11:33:39.066Z,8.15
2018-08-09T11:36:10.362Z,7.33
2018-08-09T11:38:41.140Z,7.67
2018-08-09T11:41:12.627Z,7.28
2018-08-09T11:43:43.236Z,7.35
2018-08-09T11:46:14.209Z,7.47
2018-08-09T11:48:46.482Z,8.63
2018-08-09T11:51:17.175Z,7.37
2018-08-09T11:53:48.333Z,7.95
2018-08-09T11:56:20.735Z,7.97
2018-08-09T11:58:51.465Z,8.20
2018-08-09T12:01:23.144Z,7.65
2018-08-09T12:03:54.475Z,7.45
2018-08-09T12:06:27.898Z,7.53
2018-08-09T12:09:00.101Z,6.80
2018-08-09T12:11:32.642Z,7.15
2018-08-09T12:14:03.646Z,6.08
2018-08-09T12:16:34.638Z,6.90
2018-08-09T12:19:05.968Z,6.05
2018-08-09T12:21:38.160Z,6.90
2018-08-09T12:24:09.545Z,6.97
2018-08-09T12:26:40.439Z,7.75
2018-08-09T12:29:11.339Z,7.15
2018-08-09T12:31:42.409Z,7.25
2018-08-09T12:34:14.541Z,6.62
2018-08-09T12:36:46.295Z,7.33
2018-08-09T12:39:18.779Z,6.70
2018-08-09T12:41:50.112Z,17.17
2018-08-09T12:44:21.333Z,7.47
2018-08-09T12:46:52.245Z,7.03
2018-08-09T12:49:23.212Z,7.22
2018-08-09T12:51:53.937Z,8.00
2018-08-09T12:54:26.058Z,10.00
2018-08-09T12:56:58.190Z,8.30
2018-08-09T12:59:30.360Z,8.80
2018-08-09T13:02:01.654Z,8.07
2018-08-09T13:04:33.509Z,9.30
2018-08-09T13:07:04.854Z,8.83
2018-08-09T13:09:35.814Z,8.77
2018-08-09T13:12:06.994Z,10.97
2018-08-09T13:14:39.404Z,8.20
2018-08-09T13:17:10.441Z,9.33
2018-08-09T13:19:41.549Z,8.10
2018-08-09T13:22:12.541Z,8.93
2018-08-09T13:24:43.355Z,9.13
2018-08-09T13:27:15.048Z,8.45
2018-08-09T13:29:46.477Z,8.95
2018-08-09T13:32:19.745Z,7.62
2018-08-09T13:34:50.777Z,9.50
2018-08-09T13:37:22.055Z,8.73
2018-08-09T13:39:56.105Z,7.97
2018-08-09T13:42:27.245Z,8.00
2018-08-09T13:45:02.448Z,7.33
2018-08-09T13:47:35.926Z,7.78
2018-08-09T13:50:10.679Z,10.08
2018-08-09T13:52:42.845Z,7.30
2018-08-09T13:55:16.950Z,7.80
2018-08-09T13:57:48.312Z,8.20
2018-08-09T14:00:22.489Z,7.95
2018-08-09T14:02:53.880Z,8.30
2018-08-09T14:05:26.672Z,8.08
2018-08-09T14:07:58.655Z,7.42
2018-08-09T14:10:30.867Z,7.45
2018-08-09T14:13:07.765Z,8.33
2018-08-09T14:15:39.596Z,8.88
2018-08-09T14:18:10.410Z,7.78
2018-08-09T14:20:43.275Z,8.00
2018-08-09T14:23:15.659Z,8.03
2018-08-09T14:25:51.830Z,8.25
2018-08-09T14:28:24.891Z,8.05
2018-08-09T14:31:01.581Z,7.40
2018-08-09T14:33:34.721Z,7.65
2018-08-09T14:36:11.703Z,8.23
2018-08-09T14:38:47.457Z,8.78
2018-08-09T14:41:18.689Z,6.87
2018-08-09T14:43:52.160Z,8.53
2018-08-09T14:46:23.997Z,12.73
2018-08-09T14:49:05.521Z,7.83
2018-08-09T14:51:37.264Z,10.60
2018-08-09T14:54:08.550Z,8.25
2018-08-09T14:56:40.384Z,31.37
2018-08-09T14:59:11.388Z,7.78
2018-08-09T15:01:42.421Z,7.90
2018-08-09T15:04:14.178Z,8.23
2018-08-09T15:06:46.044Z,9.25
2018-08-09T15:09:16.818Z,10.37
2018-08-09T15:11:47.682Z,13.70
2018-08-09T15:14:19.330Z,9.77
2018-08-09T15:16:50.287Z,7.67
2018-08-09T15:19:20.935Z,7.73
2018-08-09T15:21:52.203Z,10.13
2018-08-09T15:24:24.816Z,8.60
2018-08-09T15:26:58.237Z,11.77
2018-08-09T15:29:29.336Z,8.30
2018-08-09T15:32:00.457Z,8.40
2018-08-09T15:34:31.703Z,10.13
2018-08-09T15:37:05.768Z,8.90
2018-08-09T15:39:37.926Z,9.23
2018-08-09T15:42:09.205Z,9.40
2018-08-09T15:44:40.039Z,9.27
2018-08-09T15:47:11.328Z,8.40
2018-08-09T15:49:42.544Z,11.93
2018-08-09T15:52:13.376Z,10.80
2018-08-09T15:54:44.551Z,10.40
2018-08-09T15:57:16.254Z,10.93
2018-08-09T15:59:47.938Z,9.30
2018-08-09T16:02:21.011Z,9.03
2018-08-09T16:04:52.287Z,8.47
2018-08-09T16:07:23.963Z,8.73
2018-08-09T16:09:54.971Z,8.70
2018-08-09T16:12:26.083Z,12.23
2018-08-09T16:14:57.887Z,8.87
2018-08-09T16:17:29.044Z,9.57
2018-08-09T16:20:00.694Z,8.90
2018-08-09T16:22:31.555Z,9.30
2018-08-09T16:25:02.310Z,9.60
2018-08-09T16:27:33.217Z,9.10
2018-08-09T16:30:04.297Z,13.03
2018-08-09T16:32:36.752Z,10.13
2018-08-09T16:35:09.010Z,11.40
2018-08-09T16:37:40.551Z,9.30
2018-08-09T16:40:17.213Z,9.40
2018-08-09T16:42:48.242Z,14.07
2018-08-09T16:45:20.840Z,10.43
2018-08-09T16:47:54.303Z,10.40
2018-08-09T16:50:26.147Z,9.57
2018-08-09T16:52:58.109Z,12.87
2018-08-09T16:55:29.847Z,10.60
2018-08-09T16:58:00.437Z,10.07
2018-08-09T17:00:31.757Z,9.83
2018-08-09T17:03:04.475Z,12.27
2018-08-09T17:05:38.607Z,11.23
2018-08-09T17:08:10.800Z,10.67
2018-08-09T17:10:42.156Z,10.57
2018-08-09T17:13:13.195Z,10.10
2018-08-09T17:15:44.018Z,11.17
2018-08-09T17:18:15.231Z,10.30
2018-08-09T17:20:49.334Z,11.57
2018-08-09T17:23:20.210Z,11.20
2018-08-09T17:25:51.137Z,10.23
2018-08-09T17:28:21.922Z,10.50
2018-08-09T17:30:52.777Z,13.20
2018-08-09T17:33:24.735Z,11.00
2018-08-09T17:35:55.974Z,10.67
2018-08-09T17:38:28.465Z,11.10
2018-08-09T17:40:59.615Z,11.60
2018-08-09T17:43:31.077Z,11.07
2018-08-09T17:46:02.013Z,11.00
2018-08-09T17:48:33.667Z,12.33
2018-08-09T17:51:05.504Z,12.60
2018-08-09T17:53:37.373Z,12.00
2018-08-09T17:56:08.980Z,11.20
2018-08-09T17:58:40.764Z,15.70
2018-08-09T18:01:11.683Z,11.57
2018-08-09T18:03:42.749Z,11.83
2018-08-09T18:06:13.907Z,11.33
2018-08-09T18:08:44.800Z,11.27
2018-08-09T18:11:16.520Z,11.97
2018-08-09T18:13:49.080Z,11.73
2018-08-09T18:16:20.338Z,11.47
2018-08-09T18:18:51.457Z,12.53
2018-08-09T18:21:22.937Z,11.53
2018-08-09T18:23:53.708Z,12.97
2018-08-09T18:26:24.711Z,11.73
2018-08-09T18:28:56.457Z,13.47
2018-08-09T18:31:27.887Z,12.50
2018-08-09T18:33:58.663Z,12.37
2018-08-09T18:36:29.968Z,12.07
2018-08-09T18:39:01.154Z,12.83
2018-08-09T18:41:32.063Z,12.73
2018-08-09T18:44:03.220Z,11.53
2018-08-09T18:46:34.987Z,12.43
2018-08-09T18:49:07.622Z,12.93
2018-08-09T18:51:40.286Z,13.07
2018-08-09T18:54:13.200Z,12.07
2018-08-09T18:56:48.382Z,11.83
2018-08-09T18:59:20.360Z,12.80
2018-08-09T19:01:52.114Z,14.77
2018-08-09T19:04:23.843Z,12.73
2018-08-09T19:06:55.925Z,13.00
2018-08-09T19:09:27.515Z,13.47
2018-08-09T19:12:02.024Z,13.20
2018-08-09T19:14:34.390Z,13.50
2018-08-09T19:17:06.340Z,13.03
2018-08-09T19:19:38.124Z,12.23
2018-08-09T19:22:10.170Z,13.90
2018-08-09T19:24:42.683Z,13.37
2018-08-09T19:27:15.980Z,13.07
2018-08-09T19:29:48.880Z,13.60
2018-08-09T19:32:20.890Z,14.17
2018-08-09T19:34:53.056Z,13.67
2018-08-09T19:37:25.156Z,14.10
2018-08-09T19:39:57.573Z,13.87
2018-08-09T19:42:29.774Z,13.33
2018-08-09T19:45:01.648Z,14.03
2018-08-09T19:48:22.033Z,13.60
2018-08-09T19:50:55.473Z,13.00
2018-08-09T19:53:27.762Z,14.00
2018-08-09T19:55:59.990Z,14.43
2018-08-09T19:58:32.401Z,16.43
2018-08-09T20:01:05.914Z,14.90
2018-08-09T20:03:38.891Z,14.60
2018-08-09T20:06:11.034Z,16.50
2018-08-09T20:08:43.938Z,15.27
2018-08-09T20:11:17.846Z,15.53
2018-08-09T20:13:50.150Z,15.20
2018-08-09T20:16:22.123Z,14.03
2018-08-09T20:18:54.085Z,14.47
2018-08-09T20:21:26.231Z,14.40
2018-08-09T20:23:58.006Z,15.47
2018-08-09T20:26:30.378Z,14.67
2018-08-09T20:29:03.589Z,16.40
2018-08-09T20:31:35.737Z,16.70
2018-08-09T20:34:08.041Z,16.77
2018-08-09T20:36:39.930Z,14.97
2018-08-09T20:39:14.196Z,15.53
2018-08-09T20:41:45.827Z,15.10
2018-08-09T20:44:16.868Z,15.07
2018-08-09T20:46:48.157Z,15.03
2018-08-09T20:49:19.551Z,15.43
2018-08-09T20:51:52.496Z,15.20
2018-08-09T20:54:23.571Z,15.33
2018-08-09T20:56:54.971Z,14.97
2018-08-09T20:59:26.219Z,18.87
2018-08-09T21:01:58.201Z,17.27
2018-08-09T21:04:28.911Z,15.93
2018-08-09T21:06:59.515Z,14.50
2018-08-09T21:09:30.366Z,15.57
2018-08-09T21:12:00.947Z,14.77
2018-08-09T21:14:31.970Z,15.00
2018-08-09T21:17:02.815Z,15.33
2018-08-09T21:19:36.175Z,15.30
2018-08-09T21:22:08.647Z,15.30
2018-08-09T21:24:39.740Z,15.30
2018-08-09T21:27:10.435Z,15.63
2018-08-09T21:29:43.042Z,15.40
2018-08-09T21:32:13.896Z,17.43
2018-08-09T21:34:45.001Z,17.67
2018-08-09T21:37:18.030Z,17.13
2018-08-09T21:39:49.839Z,17.30
2018-08-09T21:42:20.833Z,18.30
2018-08-09T21:44:52.416Z,17.23
2018-08-09T21:47:24.277Z,17.40
2018-08-09T21:49:56.071Z,19.27
2018-08-09T21:52:28.768Z,16.20
2018-08-09T21:55:00.688Z,17.00
2018-08-09T21:57:32.621Z,17.27
2018-08-09T22:00:04.850Z,17.43
2018-08-09T22:02:39.536Z,15.93
2018-08-09T22:05:19.339Z,17.50
2018-08-09T22:07:57.149Z,45.53
2018-08-09T22:10:33.784Z,41.87
2018-08-09T22:13:13.279Z,46.93
2018-08-09T22:15:49.354Z,42.07
2018-08-09T22:18:27.602Z,19.80
2018-08-09T22:21:04.762Z,24.07
2018-08-09T22:23:38.793Z,19.33
2018-08-09T22:26:12.102Z,17.83
2018-08-09T22:28:45.043Z,18.10
2018-08-09T22:31:17.164Z,18.03
2018-08-09T22:33:49.830Z,18.57
2018-08-09T22:36:21.775Z,19.60
2018-08-09T22:38:54.804Z,18.53
2018-08-09T22:41:29.089Z,18.77
2018-08-09T22:44:00.780Z,17.73
2018-08-09T22:46:32.195Z,17.93
2018-08-09T22:49:05.272Z,17.73
2018-08-09T22:51:38.292Z,18.00
2018-08-09T22:54:10.213Z,16.33
2018-08-09T22:56:42.809Z,15.97
2018-08-09T22:59:17.254Z,16.27
2018-08-09T23:01:49.123Z,16.20
2018-08-09T23:04:20.650Z,16.90
2018-08-09T23:06:52.961Z,16.17
2018-08-09T23:09:27.371Z,18.40
2018-08-09T23:12:00.038Z,18.00
2018-08-09T23:14:33.191Z,20.20
2018-08-09T23:17:04.071Z,18.97
2018-08-09T23:19:36.758Z,20.30
2018-08-09T23:22:08.121Z,18.83
2018-08-09T23:24:39.733Z,20.33
2018-08-09T23:27:12.088Z,17.33
2018-08-09T23:29:44.725Z,18.10
2018-08-09T23:32:16.673Z,19.10
2018-08-09T23:34:48.037Z,19.07
2018-08-09T23:37:20.000Z,20.00
2018-08-09T23:39:52.617Z,18.87
2018-08-09T23:42:24.285Z,19.33
2018-08-09T23:44:55.595Z,20.77
2018-08-09T23:47:28.632Z,19.57
2018-08-09T23:50:00.329Z,18.57
2018-08-09T23:52:32.881Z,18.00
2018-08-09T23:55:04.491Z,18.87
2018-08-09T23:57:37.036Z,19.40
